createdAt,value
2023-01-05T00:02:16.270Z,6.10
2023-01-05T00:07:21.492Z,4.85
2023-01-05T00:12:41.531Z,6.60
2023-01-05T00:18:02.869Z,7.43
2023-01-05T00:23:06.511Z,4.63
2023-01-05T00:28:09.607Z,3.42
2023-01-05T00:33:15.373Z,4.18
2023-01-05T00:38:18.154Z,2.28
2023-01-05T00:43:20.967Z,3.17
2023-01-05T00:48:25.230Z,2.15
2023-01-05T00:53:27.927Z,2.25
2023-01-05T00:58:30.680Z,3.63
2023-01-05T01:03:34.876Z,2.22
2023-01-05T01:08:37.864Z,3.67
2023-01-05T01:13:40.567Z,4.63
2023-01-05T01:18:44.653Z,2.28
2023-01-05T01:23:47.386Z,4.63
2023-01-05T01:28:50.366Z,6.03
2023-01-05T01:33:54.928Z,7.47
2023-01-05T01:38:57.993Z,6.10
2023-01-05T01:44:00.879Z,5.40
2023-01-05T01:49:08.510Z,7.40
2023-01-05T01:54:13.374Z,8.18
2023-01-05T01:59:17.323Z,4.72
2023-01-05T02:04:21.886Z,5.95
2023-01-05T02:09:26.163Z,4.60
2023-01-05T02:14:35.548Z,6.88
2023-01-05T02:20:13.949Z,2.55
2023-01-05T02:25:42.492Z,8.02
2023-01-05T02:31:00.362Z,8.32
2023-01-05T02:36:15.432Z,6.80
2023-01-05T02:41:23.485Z,6.28
2023-01-05T02:46:27.850Z,6.82
2023-01-05T02:51:36.373Z,7.57
2023-01-05T02:56:45.027Z,8.07
2023-01-05T03:01:53.024Z,6.05
2023-01-05T03:06:57.806Z,4.78
2023-01-05T03:12:22.962Z,4.45
2023-01-05T03:17:30.539Z,11.18
2023-01-05T03:22:52.693Z,5.32
2023-01-05T03:28:14.848Z,6.93
2023-01-05T03:33:44.464Z,7.65
2023-01-05T03:38:49.303Z,7.05
2023-01-05T03:43:52.362Z,5.00
2023-01-05T03:48:57.446Z,6.78
2023-01-05T03:54:02.830Z,7.57
2023-01-05T03:59:08.080Z,7.05
2023-01-05T04:04:15.083Z,6.40
2023-01-05T04:09:17.995Z,5.90
2023-01-05T04:14:21.659Z,4.70
2023-01-05T04:19:26.031Z,8.85
2023-01-05T04:24:30.956Z,6.88
2023-01-05T04:29:36.244Z,8.05
2023-01-05T04:34:40.273Z,6.30
2023-01-05T04:39:43.956Z,6.25
2023-01-05T04:44:48.338Z,6.13
2023-01-05T04:49:52.522Z,6.97
2023-01-05T04:54:55.516Z,7.88
2023-01-05T05:00:00.136Z,8.65
2023-01-05T05:05:04.799Z,8.65
2023-01-05T05:10:10.908Z,6.20
2023-01-05T05:15:18.284Z,8.18
2023-01-05T05:20:26.204Z,4.95
2023-01-05T05:25:29.972Z,5.32
2023-01-05T05:30:32.887Z,7.45
2023-01-05T05:35:37.087Z,5.03
2023-01-05T05:40:39.855Z,5.18
2023-01-05T05:45:47.914Z,7.82
2023-01-05T05:50:54.754Z,9.32
2023-01-05T05:55:57.448Z,6.63
2023-01-05T06:01:00.359Z,6.57
2023-01-05T06:06:05.097Z,6.32
2023-01-05T06:11:08.071Z,6.47
2023-01-05T06:16:11.347Z,6.63
2023-01-05T06:21:15.567Z,3.67
2023-01-05T06:26:18.363Z,7.47
2023-01-05T06:31:21.162Z,6.05
2023-01-05T06:36:25.368Z,4.15
2023-01-05T06:41:28.167Z,5.32
2023-01-05T06:46:30.844Z,7.05
2023-01-05T06:51:34.905Z,3.50
2023-01-05T06:56:37.737Z,4.65
2023-01-05T07:01:40.542Z,6.57
2023-01-05T07:06:44.873Z,4.57
2023-01-05T07:11:47.605Z,10.07
2023-01-05T07:16:50.455Z,4.63
2023-01-05T07:21:56.888Z,8.18
2023-01-05T07:27:03.076Z,7.57
2023-01-05T07:32:10.724Z,7.38
2023-01-05T07:37:15.270Z,9.13
2023-01-05T07:42:17.983Z,7.07
2023-01-05T07:47:22.620Z,2.92
2023-01-05T07:52:26.921Z,6.40
2023-01-05T07:57:29.653Z,6.53
2023-01-05T08:02:36.080Z,6.60
2023-01-05T08:07:40.547Z,13.35
2023-01-05T08:12:57.273Z,4.93
2023-01-05T08:18:00.091Z,11.90
2023-01-05T08:23:04.202Z,6.78
2023-01-05T08:28:06.991Z,6.38
2023-01-05T08:33:09.894Z,9.27
2023-01-05T08:38:13.978Z,7.55
2023-01-05T08:43:16.725Z,8.43
2023-01-05T08:48:19.547Z,7.32
2023-01-05T08:53:23.677Z,5.07
2023-01-05T08:58:26.411Z,7.95
2023-01-05T09:03:29.149Z,7.47
2023-01-05T09:08:34.655Z,7.97
2023-01-05T09:13:37.517Z,5.32
2023-01-05T09:18:41.690Z,3.75
2023-01-05T09:23:46.077Z,4.68
2023-01-05T09:28:48.787Z,2.50
2023-01-05T09:33:51.705Z,3.58
2023-01-05T09:38:57.085Z,6.25
2023-01-05T09:44:01.782Z,3.13
2023-01-05T09:49:06.405Z,5.22
2023-01-05T09:54:16.391Z,3.80
2023-01-05T09:59:23.604Z,3.17
2023-01-05T10:04:30.804Z,9.25
2023-01-05T10:09:38.197Z,3.50
2023-01-05T10:14:43.215Z,4.43
2023-01-05T10:19:46.280Z,4.43
2023-01-05T10:24:55.318Z,3.25
2023-01-05T10:30:04.439Z,5.78
2023-01-05T10:35:41.886Z,7.82
2023-01-05T10:40:52.219Z,5.38
2023-01-05T10:46:28.733Z,4.55
2023-01-05T10:51:17.710Z,3.97
2023-01-05T10:56:28.609Z,2.38
2023-01-05T11:01:31.994Z,8.35
2023-01-05T11:06:36.444Z,4.93
2023-01-05T11:11:40.705Z,3.42
2023-01-05T11:16:48.966Z,7.03
2023-01-05T11:21:56.642Z,3.95
2023-01-05T11:27:05.662Z,5.15
2023-01-05T11:32:13.048Z,5.93
2023-01-05T11:37:24.617Z,3.80
2023-01-05T11:42:34.028Z,3.58
2023-01-05T11:47:43.761Z,4.20
2023-01-05T11:52:49.903Z,3.60
2023-01-05T11:58:00.009Z,5.50
2023-01-05T12:03:20.202Z,6.78
2023-01-05T12:08:27.577Z,5.82
2023-01-05T12:13:55.483Z,4.72
2023-01-05T12:19:19.669Z,5.60
2023-01-05T12:24:40.324Z,5.85
2023-01-05T12:35:53.748Z,5.40
2023-01-05T12:41:09.891Z,3.63
2023-01-05T12:46:23.324Z,6.55
2023-01-05T12:51:32.541Z,7.60
2023-01-05T12:56:39.042Z,3.88
2023-01-05T13:01:45.487Z,5.90
2023-01-05T13:06:53.075Z,3.88
2023-01-05T13:12:00.590Z,4.25
2023-01-05T13:17:05.974Z,3.35
2023-01-05T13:22:16.446Z,6.15
2023-01-05T13:27:19.227Z,4.40
2023-01-05T13:32:33.439Z,6.63
2023-01-05T13:37:52.780Z,6.20
2023-01-05T13:43:15.513Z,5.93
2023-01-05T13:48:44.097Z,6.05
2023-01-05T13:53:49.597Z,6.97
2023-01-05T13:58:54.002Z,3.75
2023-01-05T14:03:58.199Z,6.82
2023-01-05T14:09:05.452Z,5.35
2023-01-05T14:14:26.541Z,4.88
2023-01-05T14:19:52.026Z,3.08
2023-01-05T14:24:56.219Z,3.85
2023-01-05T14:30:04.021Z,4.22
2023-01-05T14:35:18.355Z,4.68
2023-01-05T14:40:36.510Z,3.25
2023-01-05T14:45:40.592Z,3.63
2023-01-05T14:50:43.882Z,5.43
2023-01-05T14:56:20.227Z,4.13
2023-01-05T15:01:27.065Z,4.13
2023-01-05T15:06:39.968Z,6.28
2023-01-05T15:12:02.467Z,1.88
2023-01-05T15:17:26.816Z,1.98
2023-01-05T15:22:39.751Z,1.48
2023-01-05T15:27:56.143Z,3.75
2023-01-05T15:33:06.053Z,2.92
2023-01-05T15:38:21.549Z,2.35
2023-01-05T15:43:25.847Z,1.02
2023-01-05T15:48:31.143Z,1.08
2023-01-05T15:53:38.054Z,1.60
2023-01-05T15:58:45.978Z,1.15
2023-01-05T16:03:49.748Z,1.27
2023-01-05T16:08:55.773Z,5.45
2023-01-05T16:14:02.193Z,1.23
2023-01-05T16:19:09.913Z,1.83
2023-01-05T16:24:18.032Z,0.85
2023-01-05T16:29:39.252Z,1.42
2023-01-05T16:34:42.068Z,0.85
2023-01-05T16:39:46.082Z,1.40
2023-01-05T16:44:57.531Z,1.42
2023-01-05T16:50:00.421Z,1.33
2023-01-05T16:55:27.599Z,3.13
2023-01-05T17:00:41.412Z,2.60
2023-01-05T17:05:44.131Z,6.88
2023-01-05T17:10:47.151Z,1.77
2023-01-05T17:15:53.183Z,2.60
2023-01-05T17:20:57.815Z,2.95
2023-01-05T17:26:03.712Z,1.65
2023-01-05T17:31:08.056Z,3.03
2023-01-05T17:36:11.552Z,4.93
2023-01-05T17:41:16.086Z,2.63
2023-01-05T17:46:22.954Z,2.60
2023-01-05T17:51:28.037Z,5.32
2023-01-05T18:01:39.797Z,3.35
2023-01-05T18:06:42.616Z,3.00
2023-01-05T18:11:45.404Z,5.43
2023-01-05T18:16:49.687Z,6.40
2023-01-05T18:21:52.628Z,5.93
2023-01-05T18:26:55.986Z,4.07
2023-01-05T18:32:00.298Z,4.32
2023-01-05T18:37:06.410Z,1.58
2023-01-05T18:42:13.308Z,3.70
2023-01-05T18:47:17.467Z,1.98
2023-01-05T18:52:20.275Z,4.03
2023-01-05T18:57:23.102Z,2.75
2023-01-05T19:02:27.520Z,1.35
2023-01-05T19:07:30.462Z,1.45
2023-01-05T19:12:33.219Z,1.77
2023-01-05T19:17:37.501Z,1.85
2023-01-05T19:22:41.641Z,1.67
2023-01-05T19:27:45.489Z,1.40
2023-01-05T19:32:49.663Z,1.45
2023-01-05T19:37:52.638Z,1.02
2023-01-05T19:42:55.605Z,2.08
2023-01-05T19:47:59.864Z,2.35
2023-01-05T19:53:02.645Z,0.90
2023-01-05T19:58:05.548Z,1.60
2023-01-05T20:03:09.872Z,1.33
2023-01-05T20:08:12.775Z,2.50
2023-01-05T20:13:15.601Z,2.53
2023-01-05T20:18:19.696Z,2.25
2023-01-05T20:23:22.398Z,2.88
2023-01-05T20:28:25.500Z,3.00
2023-01-05T20:33:29.879Z,1.42
2023-01-05T20:38:37.900Z,2.30
2023-01-05T20:43:43.528Z,1.38
2023-01-05T20:48:49.714Z,1.48
2023-01-05T20:53:53.763Z,0.90
2023-01-05T20:58:56.809Z,2.15
2023-01-05T21:04:00.938Z,1.70
2023-01-05T21:09:05.051Z,1.40
2023-01-05T21:14:08.831Z,0.80
2023-01-05T21:19:17.568Z,0.50
2023-01-05T21:24:20.688Z,1.10
2023-01-05T21:29:25.937Z,1.25
2023-01-05T21:34:30.382Z,3.45
2023-01-05T21:39:33.371Z,1.05
2023-01-05T21:44:36.440Z,1.00
2023-01-05T21:49:40.755Z,2.03
2023-01-05T21:55:03.249Z,2.15
2023-01-05T22:00:07.516Z,2.53
2023-01-05T22:05:11.745Z,3.17
2023-01-05T22:10:14.875Z,2.28
2023-01-05T22:15:18.288Z,1.83
2023-01-05T22:20:22.532Z,2.47
2023-01-05T22:25:25.230Z,2.03
2023-01-05T22:30:28.121Z,3.58
2023-01-05T22:35:32.364Z,4.32
2023-01-05T22:40:35.258Z,3.47
2023-01-05T22:45:38.015Z,2.03
2023-01-05T22:50:42.169Z,3.28
2023-01-05T22:55:45.300Z,2.00
2023-01-05T23:00:48.116Z,3.13
2023-01-05T23:05:54.049Z,2.17
2023-01-05T23:11:00.758Z,2.70
2023-01-05T23:16:05.211Z,2.53
2023-01-05T23:21:11.606Z,2.72
2023-01-05T23:26:16.125Z,4.53
2023-01-05T23:31:19.247Z,4.00
2023-01-05T23:36:24.554Z,6.32
2023-01-05T23:41:27.349Z,3.55
2023-01-05T23:46:30.104Z,4.20
2023-01-05T23:51:34.202Z,4.53
2023-01-05T23:56:37.108Z,3.22
